createdAt,value
2022-09-28T00:00:05.669Z,989.61
2022-09-28T00:01:05.462Z,989.58
2022-09-28T00:02:05.632Z,989.61
2022-09-28T00:03:05.545Z,989.59
2022-09-28T00:04:05.428Z,989.58
2022-09-28T00:05:05.428Z,989.60
2022-09-28T00:06:05.528Z,989.62
2022-09-28T00:07:05.398Z,989.66
2022-09-28T00:08:05.449Z,989.68
2022-09-28T00:09:05.369Z,989.67
2022-09-28T00:10:05.381Z,989.67
2022-09-28T00:11:05.350Z,989.70
2022-09-28T00:12:05.815Z,989.69
2022-09-28T00:13:05.685Z,989.63
2022-09-28T00:14:05.358Z,989.67
2022-09-28T00:15:05.321Z,989.64
2022-09-28T00:16:05.442Z,989.68
2022-09-28T00:17:05.311Z,989.70
2022-09-28T00:18:05.301Z,989.69
2022-09-28T00:19:05.262Z,989.68
2022-09-28T00:20:05.305Z,989.70
2022-09-28T00:21:05.241Z,989.67
2022-09-28T00:22:05.238Z,989.66
2022-09-28T00:23:05.221Z,989.69
2022-09-28T00:24:05.249Z,989.70
2022-09-28T00:25:05.221Z,989.68
2022-09-28T00:26:05.191Z,989.69
2022-09-28T00:27:05.172Z,989.69
2022-09-28T00:28:05.172Z,989.67
2022-09-28T00:29:05.153Z,989.65
2022-09-28T00:30:05.175Z,989.69
2022-09-28T00:31:05.196Z,989.63
2022-09-28T00:32:05.133Z,989.65
2022-09-28T00:33:05.115Z,989.64
2022-09-28T00:34:05.103Z,989.67
2022-09-28T00:35:05.084Z,989.61
2022-09-28T00:36:05.164Z,989.64
2022-09-28T00:37:05.067Z,989.65
2022-09-28T00:38:05.062Z,989.62
2022-09-28T00:39:05.045Z,989.65
2022-09-28T00:40:05.139Z,989.65
2022-09-28T00:41:05.025Z,989.67
2022-09-28T00:42:05.054Z,989.63
2022-09-28T00:43:04.995Z,989.63
2022-09-28T00:44:05.099Z,989.62
2022-09-28T00:45:04.976Z,989.60
2022-09-28T00:46:05.045Z,989.61
2022-09-28T00:47:04.965Z,989.60
2022-09-28T00:48:04.967Z,989.62
2022-09-28T00:49:04.935Z,989.57
2022-09-28T00:50:04.946Z,989.60
2022-09-28T00:51:04.906Z,989.54
2022-09-28T00:52:04.907Z,989.57
2022-09-28T00:53:04.895Z,989.54
2022-09-28T00:54:04.953Z,989.53
2022-09-28T00:55:04.879Z,989.54
2022-09-28T00:56:04.865Z,989.55
2022-09-28T00:57:04.867Z,989.53
2022-09-28T00:58:04.984Z,989.52
2022-09-28T00:59:04.830Z,989.50
2022-09-28T01:00:04.925Z,989.47
2022-09-28T01:01:04.843Z,989.47
2022-09-28T01:02:04.928Z,989.48
2022-09-28T01:03:04.779Z,989.46
2022-09-28T01:04:04.786Z,989.49
2022-09-28T01:05:04.783Z,989.48
2022-09-28T01:06:05.033Z,989.49
2022-09-28T01:07:04.747Z,989.48
2022-09-28T01:08:04.751Z,989.45
2022-09-28T01:09:04.718Z,989.47
2022-09-28T01:10:04.758Z,989.44
2022-09-28T01:11:04.717Z,989.43
2022-09-28T01:12:04.689Z,989.39
2022-09-28T01:13:04.676Z,989.39
2022-09-28T01:14:04.673Z,989.39
2022-09-28T01:15:04.672Z,989.37
2022-09-28T01:16:04.774Z,989.41
2022-09-28T01:17:04.639Z,989.37
2022-09-28T01:18:04.622Z,989.35
2022-09-28T01:19:04.614Z,989.34
2022-09-28T01:20:04.610Z,989.38
2022-09-28T01:21:04.590Z,989.42
2022-09-28T01:22:04.571Z,989.43
2022-09-28T01:23:04.572Z,989.40
2022-09-28T01:24:04.569Z,989.42
2022-09-28T01:25:04.570Z,989.36
2022-09-28T01:26:04.565Z,989.38
2022-09-28T01:27:04.550Z,989.41
2022-09-28T01:28:04.605Z,989.36
2022-09-28T01:29:04.509Z,989.39
2022-09-28T01:30:04.512Z,989.39
2022-09-28T01:31:04.488Z,989.35
2022-09-28T01:32:04.491Z,989.33
2022-09-28T01:33:04.463Z,989.36
2022-09-28T01:34:04.525Z,989.37
2022-09-28T01:35:04.482Z,989.35
2022-09-28T01:36:04.450Z,989.37
2022-09-28T01:37:04.633Z,989.35
2022-09-28T01:38:04.396Z,989.34
2022-09-28T01:39:04.393Z,989.32
2022-09-28T01:40:04.502Z,989.30
2022-09-28T01:41:04.373Z,989.28
2022-09-28T01:42:04.389Z,989.29
2022-09-28T01:43:04.354Z,989.30
2022-09-28T01:44:04.344Z,989.29
2022-09-28T01:45:04.395Z,989.29
2022-09-28T01:46:04.426Z,989.28
2022-09-28T01:47:04.467Z,989.30
2022-09-28T01:48:04.397Z,989.28
2022-09-28T01:49:04.277Z,989.29
2022-09-28T01:50:04.342Z,989.30
2022-09-28T01:51:04.266Z,989.30
2022-09-28T01:52:04.256Z,989.28
2022-09-28T01:53:04.246Z,989.28
2022-09-28T01:54:04.226Z,989.26
2022-09-28T01:55:04.367Z,989.28
2022-09-28T01:56:04.247Z,989.26
2022-09-28T01:57:04.197Z,989.30
2022-09-28T01:58:04.199Z,989.23
2022-09-28T01:59:04.167Z,989.29
2022-09-28T02:00:04.176Z,989.25
2022-09-28T02:01:04.212Z,989.23
2022-09-28T02:02:04.202Z,989.22
2022-09-28T02:03:04.168Z,989.21
2022-09-28T02:04:04.125Z,989.21
2022-09-28T02:05:04.117Z,989.19
2022-09-28T02:06:04.120Z,989.20
2022-09-28T02:07:04.080Z,989.20
2022-09-28T02:08:04.168Z,989.20
2022-09-28T02:09:04.058Z,989.21
2022-09-28T02:10:04.069Z,989.19
2022-09-28T02:11:04.049Z,989.24
2022-09-28T02:12:04.065Z,989.25
2022-09-28T02:13:04.020Z,989.24
2022-09-28T02:14:04.070Z,989.24
2022-09-28T02:15:04.009Z,989.25
2022-09-28T02:16:04.069Z,989.28
2022-09-28T02:17:03.987Z,989.29
2022-09-28T02:18:03.979Z,989.27
2022-09-28T02:19:03.979Z,989.27
2022-09-28T02:20:03.961Z,989.29
2022-09-28T02:21:03.932Z,989.28
2022-09-28T02:22:03.939Z,989.30
2022-09-28T02:23:03.911Z,989.31
2022-09-28T02:24:04.022Z,989.30
2022-09-28T02:25:03.893Z,989.31
2022-09-28T02:26:04.184Z,989.31
2022-09-28T02:27:03.873Z,989.29
2022-09-28T02:28:03.861Z,989.32
2022-09-28T02:29:03.849Z,989.30
2022-09-28T02:30:04.024Z,989.29
2022-09-28T02:31:03.899Z,989.31
2022-09-28T02:32:03.819Z,989.31
2022-09-28T02:33:03.802Z,989.29
2022-09-28T02:34:03.821Z,989.30
2022-09-28T02:35:03.804Z,989.29
2022-09-28T02:36:03.817Z,989.28
2022-09-28T02:37:03.759Z,989.32
2022-09-28T02:38:03.753Z,989.29
2022-09-28T02:39:03.742Z,989.31
2022-09-28T02:40:03.735Z,989.30
2022-09-28T02:41:03.715Z,989.32
2022-09-28T02:42:03.716Z,989.36
2022-09-28T02:43:03.694Z,989.37
2022-09-28T02:44:03.685Z,989.32
2022-09-28T02:45:03.687Z,989.32
2022-09-28T02:46:03.730Z,989.32
2022-09-28T02:47:03.653Z,989.32
2022-09-28T02:48:03.706Z,989.34
2022-09-28T02:49:20.951Z,989.33
2022-09-28T02:50:04.688Z,989.34
2022-09-28T02:51:03.610Z,989.34
2022-09-28T02:52:03.617Z,989.34
2022-09-28T02:53:03.589Z,989.34
2022-09-28T02:54:03.644Z,989.33
2022-09-28T02:55:03.568Z,989.36
2022-09-28T02:56:03.877Z,989.36
2022-09-28T02:57:03.538Z,989.36
2022-09-28T02:58:03.553Z,989.40
2022-09-28T02:59:03.517Z,989.39
2022-09-28T03:00:03.554Z,989.42
2022-09-28T03:01:03.542Z,989.41
2022-09-28T03:02:04.525Z,989.42
2022-09-28T03:03:03.484Z,989.38
2022-09-28T03:04:03.554Z,989.42
2022-09-28T03:05:03.467Z,989.46
2022-09-28T03:06:03.464Z,989.43
2022-09-28T03:07:03.428Z,989.47
2022-09-28T03:08:03.468Z,989.44
2022-09-28T03:09:03.407Z,989.44
2022-09-28T03:10:03.454Z,989.45
2022-09-28T03:11:03.405Z,989.45
2022-09-28T03:12:03.387Z,989.45
2022-09-28T03:13:03.369Z,989.45
2022-09-28T03:14:04.415Z,989.43
2022-09-28T03:15:03.370Z,989.38
2022-09-28T03:16:04.355Z,989.43
2022-09-28T03:17:03.337Z,989.42
2022-09-28T03:18:03.330Z,989.45
2022-09-28T03:19:03.299Z,989.46
2022-09-28T03:20:03.310Z,989.45
2022-09-28T03:21:03.283Z,989.47
2022-09-28T03:22:03.333Z,989.51
2022-09-28T03:24:04.290Z,989.51
2022-09-28T03:25:03.241Z,989.47
2022-09-28T03:26:03.288Z,989.50
2022-09-28T03:27:03.220Z,989.48
2022-09-28T03:28:03.201Z,989.45
2022-09-28T03:29:03.192Z,989.40
2022-09-28T03:30:03.200Z,989.45
2022-09-28T03:31:03.198Z,989.42
2022-09-28T03:32:03.186Z,989.42
2022-09-28T03:33:03.174Z,989.46
2022-09-28T03:34:03.131Z,989.43
2022-09-28T03:35:03.152Z,989.44
2022-09-28T03:36:03.112Z,989.44
2022-09-28T03:37:03.110Z,989.48
2022-09-28T03:38:03.097Z,989.44
2022-09-28T03:39:03.122Z,989.44
2022-09-28T03:40:03.073Z,989.44
2022-09-28T03:41:03.164Z,989.44
2022-09-28T03:42:03.080Z,989.43
2022-09-28T03:43:03.046Z,989.45
2022-09-28T03:44:03.043Z,989.46
2022-09-28T03:45:03.057Z,989.46
2022-09-28T03:46:03.073Z,989.47
2022-09-28T03:47:03.002Z,989.44
2022-09-28T03:48:02.994Z,989.43
2022-09-28T03:49:02.972Z,989.44
2022-09-28T03:50:03.005Z,989.44
2022-09-28T03:51:02.953Z,989.44
2022-09-28T03:52:02.935Z,989.41
2022-09-28T03:53:02.933Z,989.40
2022-09-28T03:54:02.926Z,989.44
2022-09-28T03:55:02.926Z,989.47
2022-09-28T03:56:02.916Z,989.47
2022-09-28T03:57:02.893Z,989.46
2022-09-28T03:58:02.884Z,989.45
2022-09-28T03:59:02.865Z,989.47
2022-09-28T04:00:02.874Z,989.44
2022-09-28T04:01:02.927Z,989.44
2022-09-28T04:02:02.894Z,989.45
2022-09-28T04:03:02.825Z,989.47
2022-09-28T04:04:02.856Z,989.49
2022-09-28T04:05:02.833Z,989.51
2022-09-28T04:06:02.792Z,989.50
2022-09-28T04:07:02.793Z,989.48
2022-09-28T04:08:02.823Z,989.47
2022-09-28T04:09:02.760Z,989.45
2022-09-28T04:10:02.765Z,989.45
2022-09-28T04:11:02.759Z,989.41
2022-09-28T04:12:04.477Z,989.45
2022-09-28T04:13:02.714Z,989.47
2022-09-28T04:14:02.789Z,989.55
2022-09-28T04:15:02.697Z,989.50
2022-09-28T04:16:02.728Z,989.49
2022-09-28T04:17:02.670Z,989.48
2022-09-28T04:18:02.846Z,989.47
2022-09-28T04:19:02.647Z,989.43
2022-09-28T04:20:02.679Z,989.43
2022-09-28T04:21:02.630Z,989.44
2022-09-28T04:22:02.971Z,989.41
2022-09-28T04:23:02.610Z,989.42
2022-09-28T04:24:02.658Z,989.45
2022-09-28T04:25:02.619Z,989.47
2022-09-28T04:26:02.752Z,989.46
2022-09-28T04:27:02.560Z,989.49
2022-09-28T04:28:02.809Z,989.45
2022-09-28T04:29:06.312Z,989.49
2022-09-28T04:30:02.778Z,989.53
2022-09-28T04:31:02.519Z,989.50
2022-09-28T04:32:02.567Z,989.54
2022-09-28T04:33:02.500Z,989.54
2022-09-28T04:34:02.841Z,989.56
2022-09-28T04:35:02.481Z,989.56
2022-09-28T04:36:02.751Z,989.57
2022-09-28T04:37:02.452Z,989.54
2022-09-28T04:38:03.478Z,989.54
2022-09-28T04:39:02.432Z,989.61
2022-09-28T04:40:02.569Z,989.58
2022-09-28T04:41:02.453Z,989.58
2022-09-28T04:42:02.478Z,989.59
2022-09-28T04:43:02.381Z,989.60
2022-09-28T04:44:02.407Z,989.61
2022-09-28T04:45:02.395Z,989.59
2022-09-28T04:46:02.689Z,989.64
2022-09-28T04:47:05.195Z,989.67
2022-09-28T04:48:02.415Z,989.64
2022-09-28T04:49:02.322Z,989.66
2022-09-28T04:50:02.331Z,989.64
2022-09-28T04:51:02.293Z,989.58
2022-09-28T04:52:02.325Z,989.66
2022-09-28T04:53:02.272Z,989.66
2022-09-28T04:54:02.273Z,989.66
2022-09-28T04:55:02.263Z,989.68
2022-09-28T04:56:02.270Z,989.65
2022-09-28T04:57:02.232Z,989.71
2022-09-28T04:58:02.253Z,989.67
2022-09-28T04:59:02.204Z,989.70
2022-09-28T05:00:02.263Z,989.68
2022-09-28T05:01:02.219Z,989.70
2022-09-28T05:02:02.249Z,989.72
2022-09-28T05:03:02.165Z,989.70
2022-09-28T05:04:02.246Z,989.68
2022-09-28T05:05:02.171Z,989.71
2022-09-28T05:06:02.135Z,989.73
2022-09-28T05:07:02.135Z,989.68
2022-09-28T05:08:02.124Z,989.69
2022-09-28T05:09:02.103Z,989.63
2022-09-28T05:10:02.137Z,989.73
2022-09-28T05:11:02.086Z,989.72
2022-09-28T05:12:02.075Z,989.74
2022-09-28T05:13:02.055Z,989.71
2022-09-28T05:14:02.086Z,989.74
2022-09-28T05:15:02.067Z,989.75
2022-09-28T05:16:05.409Z,989.74
2022-09-28T05:17:02.047Z,989.73
2022-09-28T05:18:02.028Z,989.75
2022-09-28T05:19:01.986Z,989.75
2022-09-28T05:20:02.006Z,989.76
2022-09-28T05:21:01.970Z,989.70
2022-09-28T05:22:01.958Z,989.68
2022-09-28T05:23:01.947Z,989.74
2022-09-28T05:24:01.942Z,989.74
2022-09-28T05:25:01.929Z,989.77
2022-09-28T05:26:01.956Z,989.72
2022-09-28T05:27:01.898Z,989.76
2022-09-28T05:28:01.991Z,989.74
2022-09-28T05:29:01.907Z,989.78
2022-09-28T05:30:01.955Z,989.71
2022-09-28T05:31:01.859Z,989.78
2022-09-28T05:32:02.058Z,989.75
2022-09-28T05:33:01.840Z,989.77
2022-09-28T05:34:01.853Z,989.76
2022-09-28T05:35:01.831Z,989.74
2022-09-28T05:36:02.096Z,989.81
2022-09-28T05:37:01.790Z,989.74
2022-09-28T05:38:01.829Z,989.78
2022-09-28T05:39:01.770Z,989.77
2022-09-28T05:40:01.799Z,989.76
2022-09-28T05:41:06.258Z,989.77
2022-09-28T05:42:01.750Z,989.81
2022-09-28T05:43:01.743Z,989.82
2022-09-28T05:44:01.775Z,989.82
2022-09-28T05:45:01.710Z,989.80
2022-09-28T05:46:01.758Z,989.79
2022-09-28T05:47:01.732Z,989.80
2022-09-28T05:48:01.690Z,989.81
2022-09-28T05:49:01.680Z,989.74
2022-09-28T05:50:01.671Z,989.75
2022-09-28T05:51:01.650Z,989.77
2022-09-28T05:52:01.650Z,989.74
2022-09-28T05:53:01.623Z,989.75
2022-09-28T05:54:05.752Z,989.77
2022-09-28T05:55:01.639Z,989.73
2022-09-28T05:56:01.747Z,989.72
2022-09-28T05:57:01.591Z,989.77
2022-09-28T05:58:01.572Z,989.78
2022-09-28T05:59:01.573Z,989.73
2022-09-28T06:00:01.583Z,989.74
2022-09-28T06:01:01.584Z,989.77
2022-09-28T06:02:01.576Z,989.78
2022-09-28T06:03:05.389Z,989.77
2022-09-28T06:04:02.612Z,989.79
2022-09-28T06:05:01.528Z,989.79
2022-09-28T06:06:01.621Z,989.75
2022-09-28T06:07:01.464Z,989.77
2022-09-28T06:08:01.462Z,989.77
2022-09-28T06:09:01.448Z,989.72
2022-09-28T06:10:01.444Z,989.73
2022-09-28T06:11:01.426Z,989.76
2022-09-28T06:12:01.418Z,989.75
2022-09-28T06:13:01.416Z,989.75
2022-09-28T06:14:01.395Z,989.79
2022-09-28T06:15:01.406Z,989.79
2022-09-28T06:16:01.375Z,989.80
2022-09-28T06:17:01.402Z,989.79
2022-09-28T06:18:01.357Z,989.84
2022-09-28T06:19:01.332Z,989.84
2022-09-28T06:20:01.361Z,989.82
2022-09-28T06:21:01.339Z,989.82
2022-09-28T06:22:01.316Z,989.80
2022-09-28T06:23:01.297Z,989.82
2022-09-28T06:24:01.355Z,989.85
2022-09-28T06:25:01.276Z,989.87
2022-09-28T06:26:01.266Z,989.88
2022-09-28T06:27:01.249Z,989.87
2022-09-28T06:28:01.238Z,989.88
2022-09-28T06:29:01.252Z,989.89
2022-09-28T06:30:01.229Z,989.90
2022-09-28T06:31:01.256Z,989.90
2022-09-28T06:32:01.199Z,989.95
2022-09-28T06:33:01.178Z,989.97
2022-09-28T06:34:01.170Z,989.96
2022-09-28T06:35:01.176Z,989.99
2022-09-28T06:36:01.166Z,989.99
2022-09-28T06:37:01.129Z,990.01
2022-09-28T06:38:01.137Z,990.05
2022-09-28T06:39:01.110Z,990.05
2022-09-28T06:40:01.111Z,990.07
2022-09-28T06:41:01.179Z,990.09
2022-09-28T06:42:01.112Z,990.05
2022-09-28T06:43:01.075Z,990.10
2022-09-28T06:44:01.061Z,990.09
2022-09-28T06:45:01.060Z,990.10
2022-09-28T06:46:01.116Z,990.12
2022-09-28T06:47:01.117Z,990.09
2022-09-28T06:48:01.024Z,990.09
2022-09-28T06:49:01.004Z,990.13
2022-09-28T06:50:01.004Z,990.14
2022-09-28T06:51:00.982Z,990.13
2022-09-28T06:52:00.992Z,990.15
2022-09-28T06:53:00.961Z,990.15
2022-09-28T06:54:00.953Z,990.17
2022-09-28T06:55:00.943Z,990.21
2022-09-28T06:56:00.934Z,990.18
2022-09-28T06:57:00.973Z,990.14
2022-09-28T06:58:00.915Z,990.19
2022-09-28T06:59:00.902Z,990.16
2022-09-28T07:00:00.904Z,990.19
2022-09-28T07:01:00.900Z,990.17
2022-09-28T07:02:00.904Z,990.21
2022-09-28T07:03:00.843Z,990.22
2022-09-28T07:04:00.846Z,990.18
2022-09-28T07:05:00.903Z,990.25
2022-09-28T07:06:00.815Z,990.27
2022-09-28T07:07:00.804Z,990.27
2022-09-28T07:08:00.796Z,990.33
2022-09-28T07:09:23.868Z,990.31
2022-09-28T07:10:01.872Z,990.30
2022-09-28T07:11:00.780Z,990.31
2022-09-28T07:12:00.745Z,990.38
2022-09-28T07:13:00.764Z,990.36
2022-09-28T07:14:00.785Z,990.36
2022-09-28T07:15:00.744Z,990.39
2022-09-28T07:16:00.713Z,990.37
2022-09-28T07:17:13.654Z,990.37
2022-09-28T07:18:03.462Z,990.39
2022-09-28T07:19:00.676Z,990.40
2022-09-28T07:20:09.148Z,990.37
2022-09-28T07:21:01.668Z,990.36
2022-09-28T07:22:04.984Z,990.36
2022-09-28T07:23:15.243Z,990.43
2022-09-28T07:24:01.723Z,990.42
2022-09-28T07:25:00.619Z,990.40
2022-09-28T07:26:00.603Z,990.39
2022-09-28T07:27:00.595Z,990.46
2022-09-28T07:28:00.568Z,990.42
2022-09-28T07:29:00.568Z,990.45
2022-09-28T07:30:00.568Z,990.45
2022-09-28T07:31:00.576Z,990.46
2022-09-28T07:32:00.528Z,990.46
2022-09-28T07:33:00.532Z,990.48
2022-09-28T07:34:00.527Z,990.49
2022-09-28T07:35:00.519Z,990.53
2022-09-28T07:36:00.480Z,990.48
2022-09-28T07:37:00.482Z,990.52
2022-09-28T07:38:00.463Z,990.55
2022-09-28T07:39:00.459Z,990.52
2022-09-28T07:40:00.461Z,990.52
2022-09-28T07:41:00.537Z,990.53
2022-09-28T07:42:03.031Z,990.56
2022-09-28T07:43:00.411Z,990.56
2022-09-28T07:44:00.401Z,990.54
2022-09-28T07:45:00.403Z,990.57
2022-09-28T07:46:00.453Z,990.57
2022-09-28T07:47:00.364Z,990.61
2022-09-28T07:48:00.387Z,990.59
2022-09-28T07:49:00.343Z,990.61
2022-09-28T07:50:00.352Z,990.65
2022-09-28T07:51:00.321Z,990.66
2022-09-28T07:52:00.304Z,990.62
2022-09-28T07:53:00.302Z,990.70
2022-09-28T07:54:00.291Z,990.70
2022-09-28T07:55:04.583Z,990.72
2022-09-28T07:56:01.274Z,990.72
2022-09-28T07:57:00.254Z,990.70
2022-09-28T07:58:00.253Z,990.74
2022-09-28T07:59:00.233Z,990.76
2022-09-28T08:00:00.248Z,990.76
2022-09-28T08:01:00.240Z,990.76
2022-09-28T08:02:00.269Z,990.78
2022-09-28T08:03:00.195Z,990.78
2022-09-28T08:04:00.176Z,990.83
2022-09-28T08:05:00.235Z,990.86
2022-09-28T08:06:00.176Z,990.84
2022-09-28T08:07:00.157Z,990.84
2022-09-28T08:08:00.136Z,990.84
2022-09-28T08:09:00.126Z,990.86
2022-09-28T08:10:00.132Z,990.90
2022-09-28T08:11:00.197Z,990.84
2022-09-28T08:12:00.099Z,990.89
2022-09-28T08:13:02.602Z,990.89
2022-09-28T08:14:00.079Z,990.87
2022-09-28T08:15:00.083Z,990.81
2022-09-28T08:16:00.061Z,990.85
2022-09-28T08:17:00.029Z,990.86
2022-09-28T08:18:02.641Z,990.85
2022-09-28T08:19:00.008Z,990.90
2022-09-28T08:20:00.049Z,990.91
2022-09-28T08:20:59.988Z,990.89
2022-09-28T08:21:59.980Z,990.88
2022-09-28T08:22:59.968Z,990.86
2022-09-28T08:23:59.999Z,990.85
2022-09-28T08:24:59.950Z,990.91
2022-09-28T08:25:59.974Z,990.89
2022-09-28T08:26:59.925Z,990.89
2022-09-28T08:27:59.920Z,990.91
2022-09-28T08:28:59.902Z,990.95
2022-09-28T08:29:59.921Z,990.93
2022-09-28T08:30:59.914Z,990.92
2022-09-28T08:32:01.690Z,990.89
2022-09-28T08:32:59.861Z,990.93
2022-09-28T08:33:59.844Z,990.95
2022-09-28T08:34:59.831Z,990.96
2022-09-28T08:36:00.043Z,990.95
2022-09-28T08:36:59.803Z,990.93
2022-09-28T08:37:59.803Z,990.97
2022-09-28T08:38:59.816Z,991.00
2022-09-28T08:39:59.783Z,990.95
2022-09-28T08:40:59.856Z,991.01
2022-09-28T08:41:59.765Z,990.99
2022-09-28T08:42:59.775Z,990.97
2022-09-28T08:43:59.766Z,990.94
2022-09-28T08:44:59.725Z,990.94
2022-09-28T08:45:59.778Z,990.96
2022-09-28T08:46:59.696Z,990.97
2022-09-28T08:47:59.698Z,991.02
2022-09-28T08:49:23.764Z,991.00
2022-09-28T08:50:00.690Z,990.97
2022-09-28T08:50:59.678Z,990.97
2022-09-28T08:51:59.662Z,991.02
2022-09-28T08:52:59.626Z,990.99
2022-09-28T08:53:59.628Z,990.95
2022-09-28T08:54:59.617Z,990.93
2022-09-28T08:55:59.660Z,990.97
2022-09-28T08:56:59.588Z,990.94
2022-09-28T08:57:59.577Z,990.98
2022-09-28T08:58:59.569Z,990.97
2022-09-28T08:59:59.558Z,991.01
2022-09-28T09:00:59.602Z,990.99
2022-09-28T09:01:59.559Z,990.97
2022-09-28T09:02:59.574Z,991.00
2022-09-28T09:03:59.519Z,991.03
2022-09-28T09:04:59.500Z,990.99
2022-09-28T09:05:59.502Z,991.02
2022-09-28T09:06:59.479Z,991.06
2022-09-28T09:07:59.472Z,991.03
2022-09-28T09:08:59.461Z,991.07
2022-09-28T09:09:59.442Z,991.06
2022-09-28T09:10:59.443Z,991.08
2022-09-28T09:11:59.432Z,991.12
2022-09-28T09:12:59.415Z,991.11
2022-09-28T09:13:59.685Z,991.09
2022-09-28T09:14:59.394Z,991.09
2022-09-28T09:15:59.391Z,991.04
2022-09-28T09:17:00.591Z,991.11
2022-09-28T09:17:59.372Z,991.08
2022-09-28T09:18:59.367Z,991.05
2022-09-28T09:19:59.354Z,991.09
2022-09-28T09:20:59.338Z,991.14
2022-09-28T09:21:59.487Z,991.11
2022-09-28T09:22:59.297Z,991.14
2022-09-28T09:24:00.016Z,991.23
2022-09-28T09:24:59.268Z,991.22
2022-09-28T09:25:59.278Z,991.17
2022-09-28T09:26:59.257Z,991.17
2022-09-28T09:27:59.258Z,991.15
2022-09-28T09:28:59.230Z,991.18
2022-09-28T09:29:59.222Z,991.16
2022-09-28T09:30:59.233Z,991.14
2022-09-28T09:31:59.199Z,991.10
2022-09-28T09:32:59.195Z,991.12
2022-09-28T09:33:59.183Z,991.08
2022-09-28T09:34:59.162Z,991.12
2022-09-28T09:35:59.212Z,991.15
2022-09-28T09:36:59.138Z,991.15
2022-09-28T09:37:59.131Z,991.14
2022-09-28T09:38:59.148Z,991.16
2022-09-28T09:39:59.112Z,991.17
2022-09-28T09:40:59.179Z,991.22
2022-09-28T09:41:59.112Z,991.21
2022-09-28T09:42:59.074Z,991.24
2022-09-28T09:43:59.064Z,991.22
2022-09-28T09:44:59.055Z,991.24
2022-09-28T09:45:59.128Z,991.23
2022-09-28T09:46:59.038Z,991.25
2022-09-28T09:47:59.034Z,991.27
2022-09-28T09:48:59.007Z,991.24
2022-09-28T09:49:59.013Z,991.22
2022-09-28T09:50:58.986Z,991.21
2022-09-28T09:51:58.974Z,991.19
2022-09-28T09:52:58.984Z,991.22
2022-09-28T09:53:59.047Z,991.20
2022-09-28T09:54:58.958Z,991.23
2022-09-28T09:55:58.938Z,991.18
2022-09-28T09:56:58.938Z,991.23
2022-09-28T09:57:58.919Z,991.22
2022-09-28T09:58:58.901Z,991.15
2022-09-28T09:59:58.889Z,991.12
2022-09-28T10:00:58.922Z,991.17
2022-09-28T10:01:58.930Z,991.11
2022-09-28T10:02:58.900Z,991.20
2022-09-28T10:03:58.899Z,991.20
2022-09-28T10:04:58.841Z,991.18
2022-09-28T10:05:58.868Z,991.18
2022-09-28T10:06:58.804Z,991.17
2022-09-28T10:07:58.803Z,991.30
2022-09-28T10:08:58.790Z,991.24
2022-09-28T10:09:58.784Z,991.23
2022-09-28T10:10:58.782Z,991.18
2022-09-28T10:11:58.757Z,991.19
2022-09-28T10:12:58.744Z,991.15
2022-09-28T10:13:58.735Z,991.23
2022-09-28T10:14:58.745Z,991.24
2022-09-28T10:15:58.712Z,991.25
2022-09-28T10:16:58.800Z,991.24
2022-09-28T10:17:58.701Z,991.24
2022-09-28T10:18:58.675Z,991.16
2022-09-28T10:19:58.688Z,991.23
2022-09-28T10:20:58.666Z,991.23
2022-09-28T10:21:58.646Z,991.18
2022-09-28T10:22:58.636Z,991.16
2022-09-28T10:23:58.618Z,991.24
2022-09-28T10:24:58.627Z,991.24
2022-09-28T10:25:58.599Z,991.20
2022-09-28T10:26:58.598Z,991.22
2022-09-28T10:27:58.582Z,991.16
2022-09-28T10:28:58.579Z,991.32
2022-09-28T10:29:58.559Z,991.25
2022-09-28T10:30:58.611Z,991.28
2022-09-28T10:31:58.542Z,991.24
2022-09-28T10:32:58.538Z,991.28
2022-09-28T10:33:58.505Z,991.26
2022-09-28T10:34:58.511Z,991.24
2022-09-28T10:35:58.490Z,991.31
2022-09-28T10:36:58.594Z,991.29
2022-09-28T10:37:58.492Z,991.33
2022-09-28T10:38:58.464Z,991.35
2022-09-28T10:39:58.462Z,991.27
2022-09-28T10:40:58.526Z,991.32
2022-09-28T10:41:58.434Z,991.36
2022-09-28T10:42:58.414Z,991.33
2022-09-28T10:43:58.604Z,991.32
2022-09-28T10:44:58.427Z,991.38
2022-09-28T10:45:58.446Z,991.35
2022-09-28T10:46:58.384Z,991.36
2022-09-28T10:47:58.367Z,991.42
2022-09-28T10:48:58.358Z,991.49
2022-09-28T10:49:58.379Z,991.62
2022-09-28T10:50:58.336Z,991.49
2022-09-28T10:51:58.317Z,991.38
2022-09-28T10:52:58.309Z,991.25
2022-09-28T10:53:58.344Z,991.32
2022-09-28T10:54:58.297Z,991.32
2022-09-28T10:55:58.278Z,991.26
2022-09-28T10:56:58.268Z,991.28
2022-09-28T10:57:58.240Z,991.29
2022-09-28T10:58:58.239Z,991.27
2022-09-28T10:59:58.249Z,991.32
2022-09-28T11:00:58.274Z,991.34
2022-09-28T11:01:58.234Z,991.32
2022-09-28T11:02:58.234Z,991.36
2022-09-28T11:03:58.181Z,991.33
2022-09-28T11:04:58.197Z,991.36
2022-09-28T11:05:58.181Z,991.36
2022-09-28T11:07:58.140Z,991.41
2022-09-28T11:08:58.132Z,991.34
2022-09-28T11:09:58.123Z,991.38
2022-09-28T11:10:58.106Z,991.40
2022-09-28T11:11:58.106Z,991.40
2022-09-28T11:12:58.089Z,991.37
2022-09-28T11:13:58.073Z,991.61
2022-09-28T11:14:58.094Z,991.60
2022-09-28T11:15:58.054Z,991.60
2022-09-28T11:16:58.070Z,991.53
2022-09-28T11:17:58.194Z,991.60
2022-09-28T11:18:58.018Z,991.60
2022-09-28T11:19:58.017Z,991.60
2022-09-28T11:20:57.997Z,991.58
2022-09-28T11:21:57.986Z,991.64
2022-09-28T11:22:57.988Z,991.51
2022-09-28T11:23:58.044Z,991.62
2022-09-28T11:24:58.060Z,991.55
2022-09-28T11:25:57.941Z,991.28
2022-09-28T11:26:57.949Z,991.55
2022-09-28T11:27:57.921Z,991.60
2022-09-28T11:28:57.913Z,991.39
2022-09-28T11:29:57.903Z,991.19
2022-09-28T11:30:58.065Z,991.19
2022-09-28T11:31:57.875Z,991.16
2022-09-28T11:32:57.952Z,991.14
2022-09-28T11:33:57.853Z,991.18
2022-09-28T11:34:59.877Z,991.07
2022-09-28T11:35:57.836Z,991.07
2022-09-28T11:37:01.508Z,991.12
2022-09-28T11:37:57.814Z,991.13
2022-09-28T11:38:57.806Z,991.30
2022-09-28T11:39:57.796Z,991.11
2022-09-28T11:40:57.855Z,991.11
2022-09-28T11:41:57.776Z,991.12
2022-09-28T11:42:57.948Z,991.13
2022-09-28T11:43:57.754Z,991.17
2022-09-28T11:44:57.758Z,991.19
2022-09-28T11:45:57.782Z,991.15
2022-09-28T11:46:57.718Z,991.16
2022-09-28T11:47:57.709Z,991.17
2022-09-28T11:48:57.708Z,991.11
2022-09-28T11:49:57.690Z,991.15
2022-09-28T11:50:57.742Z,991.14
2022-09-28T11:51:57.660Z,991.18
2022-09-28T11:52:57.651Z,991.19
2022-09-28T11:53:57.653Z,991.20
2022-09-28T11:54:57.634Z,991.20
2022-09-28T11:55:57.626Z,991.16
2022-09-28T11:56:57.614Z,991.16
2022-09-28T11:57:57.594Z,991.17
2022-09-28T11:58:57.603Z,991.18
2022-09-28T11:59:57.607Z,991.14
2022-09-28T12:00:57.559Z,991.17
2022-09-28T12:01:57.639Z,991.16
2022-09-28T12:02:57.679Z,991.24
2022-09-28T12:03:57.561Z,991.23
2022-09-28T12:04:57.535Z,991.24
2022-09-28T12:05:57.506Z,991.27
2022-09-28T12:06:57.486Z,991.27
2022-09-28T12:07:57.497Z,991.29
2022-09-28T12:08:57.479Z,991.32
2022-09-28T12:09:57.458Z,991.29
2022-09-28T12:10:57.448Z,991.31
2022-09-28T12:11:58.099Z,991.31
2022-09-28T12:12:57.646Z,991.31
2022-09-28T12:13:57.862Z,991.29
2022-09-28T12:14:57.657Z,991.30
2022-09-28T12:17:06.909Z,991.30
2022-09-28T12:17:58.635Z,991.31
2022-09-28T12:18:57.706Z,991.32
2022-09-28T12:19:57.623Z,991.30
2022-09-28T12:21:01.760Z,991.24
2022-09-28T12:21:58.457Z,991.26
2022-09-28T12:22:57.618Z,991.28
2022-09-28T12:23:58.129Z,991.29
2022-09-28T12:24:57.526Z,991.29
2022-09-28T12:25:57.564Z,991.25
2022-09-28T12:26:57.491Z,991.23
2022-09-28T12:27:57.263Z,991.27
2022-09-28T12:28:57.274Z,991.22
2022-09-28T12:29:57.374Z,991.23
2022-09-28T12:30:57.463Z,991.25